sensor_id;sensor_type;location;lat;lon;timestamp;temperature;humidity
20315;DHT22;10315;50.958;13.080;2024-03-02T00:03:53;6.80;99.90
20315;DHT22;10315;50.958;13.080;2024-03-02T00:13:56;6.80;99.90
20315;DHT22;10315;50.958;13.080;2024-03-02T00:23:58;6.70;99.90
20315;DHT22;10315;50.958;13.080;2024-03-02T00:34:04;6.80;99.90
20315;DHT22;10315;50.958;13.080;2024-03-02T00:44:07;6.80;99.90
20315;DHT22;10315;50.958;13.080;2024-03-02T00:54:13;6.80;99.90
20315;DHT22;10315;50.958;13.080;2024-03-02T01:04:15;6.90;99.90
20315;DHT22;10315;50.958;13.080;2024-03-02T01:14:18;6.80;99.90
20315;DHT22;10315;50.958;13.080;2024-03-02T01:24:20;6.80;99.90
20315;DHT22;10315;50.958;13.080;2024-03-02T01:34:23;6.70;99.90
20315;DHT22;10315;50.958;13.080;2024-03-02T01:44:25;6.90;99.90
20315;DHT22;10315;50.958;13.080;2024-03-02T01:54:28;6.80;99.90
20315;DHT22;10315;50.958;13.080;2024-03-02T02:04:29;6.70;99.90
20315;DHT22;10315;50.958;13.080;2024-03-02T02:14:32;6.70;99.90
20315;DHT22;10315;50.958;13.080;2024-03-02T02:24:35;6.70;99.90
20315;DHT22;10315;50.958;13.080;2024-03-02T02:34:37;6.80;99.90
20315;DHT22;10315;50.958;13.080;2024-03-02T02:44:40;6.70;99.90
20315;DHT22;10315;50.958;13.080;2024-03-02T02:54:41;6.60;99.90
20315;DHT22;10315;50.958;13.080;2024-03-02T03:04:44;6.70;99.90
20315;DHT22;10315;50.958;13.080;2024-03-02T03:14:46;6.90;99.90
20315;DHT22;10315;50.958;13.080;2024-03-02T03:24:49;6.90;99.90
20315;DHT22;10315;50.958;13.080;2024-03-02T03:34:50;6.50;99.90
20315;DHT22;10315;50.958;13.080;2024-03-02T03:44:53;6.50;99.90
20315;DHT22;10315;50.958;13.080;2024-03-02T03:54:55;6.30;99.90
20315;DHT22;10315;50.958;13.080;2024-03-02T04:04:58;6.90;99.90
20315;DHT22;10315;50.958;13.080;2024-03-02T04:14:59;6.90;99.90
20315;DHT22;10315;50.958;13.080;2024-03-02T04:25:03;6.80;99.90
20315;DHT22;10315;50.958;13.080;2024-03-02T04:35:07;7.00;99.90
20315;DHT22;10315;50.958;13.080;2024-03-02T04:45:11;6.90;99.90
20315;DHT22;10315;50.958;13.080;2024-03-02T04:55:13;6.80;99.90
20315;DHT22;10315;50.958;13.080;2024-03-02T05:05:52;6.80;99.90
20315;DHT22;10315;50.958;13.080;2024-03-02T05:15:53;6.90;99.90
20315;DHT22;10315;50.958;13.080;2024-03-02T05:25:56;6.80;99.90
20315;DHT22;10315;50.958;13.080;2024-03-02T05:35:58;6.70;99.90
20315;DHT22;10315;50.958;13.080;2024-03-02T05:46:01;6.70;99.90
20315;DHT22;10315;50.958;13.080;2024-03-02T05:56:03;6.70;99.90
20315;DHT22;10315;50.958;13.080;2024-03-02T06:06:06;6.70;99.90
20315;DHT22;10315;50.958;13.080;2024-03-02T06:16:08;6.60;99.90
20315;DHT22;10315;50.958;13.080;2024-03-02T06:26:11;6.70;99.90
20315;DHT22;10315;50.958;13.080;2024-03-02T06:36:12;6.80;99.90
20315;DHT22;10315;50.958;13.080;2024-03-02T06:46:17;6.80;99.90
20315;DHT22;10315;50.958;13.080;2024-03-02T06:56:18;6.80;99.90
20315;DHT22;10315;50.958;13.080;2024-03-02T07:06:21;7.00;99.90
20315;DHT22;10315;50.958;13.080;2024-03-02T07:16:23;7.20;99.90
20315;DHT22;10315;50.958;13.080;2024-03-02T07:26:31;7.30;99.90
20315;DHT22;10315;50.958;13.080;2024-03-02T07:36:33;7.40;99.90
20315;DHT22;10315;50.958;13.080;2024-03-02T07:46:36;7.50;99.90
20315;DHT22;10315;50.958;13.080;2024-03-02T07:56:37;7.60;99.90
20315;DHT22;10315;50.958;13.080;2024-03-02T08:06:40;8.00;99.90
20315;DHT22;10315;50.958;13.080;2024-03-02T08:16:42;8.30;99.90
20315;DHT22;10315;50.958;13.080;2024-03-02T08:26:45;8.70;99.90
20315;DHT22;10315;50.958;13.080;2024-03-02T08:36:46;9.10;99.90
20315;DHT22;10315;50.958;13.080;2024-03-02T08:46:49;9.30;99.90
20315;DHT22;10315;50.958;13.080;2024-03-02T08:56:52;9.60;99.90
20315;DHT22;10315;50.958;13.080;2024-03-02T09:06:55;9.30;99.90
20315;DHT22;10315;50.958;13.080;2024-03-02T09:16:57;9.10;99.90
20315;DHT22;10315;50.958;13.080;2024-03-02T09:27:00;9.10;99.90
20315;DHT22;10315;50.958;13.080;2024-03-02T09:37:01;9.20;99.90
20315;DHT22;10315;50.958;13.080;2024-03-02T09:47:06;9.40;99.90
20315;DHT22;10315;50.958;13.080;2024-03-02T09:57:08;9.90;99.90
20315;DHT22;10315;50.958;13.080;2024-03-02T10:07:13;9.90;99.90
20315;DHT22;10315;50.958;13.080;2024-03-02T10:17:17;10.10;99.90
20315;DHT22;10315;50.958;13.080;2024-03-02T10:27:23;10.70;99.90
20315;DHT22;10315;50.958;13.080;2024-03-02T10:37:24;11.00;99.90
20315;DHT22;10315;50.958;13.080;2024-03-02T10:47:29;10.70;99.90
20315;DHT22;10315;50.958;13.080;2024-03-02T10:57:42;10.80;99.90
20315;DHT22;10315;50.958;13.080;2024-03-02T11:07:48;10.50;99.90
20315;DHT22;10315;50.958;13.080;2024-03-02T11:17:50;10.60;99.90
20315;DHT22;10315;50.958;13.080;2024-03-02T11:28:04;11.10;99.90
20315;DHT22;10315;50.958;13.080;2024-03-02T11:38:06;11.60;99.90
20315;DHT22;10315;50.958;13.080;2024-03-02T11:48:11;11.80;99.90
20315;DHT22;10315;50.958;13.080;2024-03-02T11:58:16;12.40;99.90
20315;DHT22;10315;50.958;13.080;2024-03-02T12:08:22;12.80;99.90
20315;DHT22;10315;50.958;13.080;2024-03-02T12:18:24;13.20;99.90
20315;DHT22;10315;50.958;13.080;2024-03-02T12:28:27;13.50;99.90
20315;DHT22;10315;50.958;13.080;2024-03-02T12:38:28;13.90;99.90
20315;DHT22;10315;50.958;13.080;2024-03-02T12:48:31;13.90;99.90
20315;DHT22;10315;50.958;13.080;2024-03-02T12:58:39;13.90;99.90
20315;DHT22;10315;50.958;13.080;2024-03-02T13:08:42;14.20;99.90
20315;DHT22;10315;50.958;13.080;2024-03-02T13:18:44;14.30;99.90
20315;DHT22;10315;50.958;13.080;2024-03-02T13:28:47;13.80;99.90
20315;DHT22;10315;50.958;13.080;2024-03-02T13:38:49;13.70;99.90
20315;DHT22;10315;50.958;13.080;2024-03-02T13:48:52;13.80;99.90
20315;DHT22;10315;50.958;13.080;2024-03-02T13:58:54;13.70;99.90
20315;DHT22;10315;50.958;13.080;2024-03-02T14:08:57;13.20;99.90
20315;DHT22;10315;50.958;13.080;2024-03-02T14:18:58;12.50;99.90
20315;DHT22;10315;50.958;13.080;2024-03-02T14:29:02;12.10;99.90
20315;DHT22;10315;50.958;13.080;2024-03-02T14:39:03;12.00;99.90
20315;DHT22;10315;50.958;13.080;2024-03-02T14:49:10;11.80;99.90
20315;DHT22;10315;50.958;13.080;2024-03-02T14:59:12;11.60;99.90
20315;DHT22;10315;50.958;13.080;2024-03-02T15:09:15;11.50;99.90
20315;DHT22;10315;50.958;13.080;2024-03-02T15:19:18;11.30;99.90
20315;DHT22;10315;50.958;13.080;2024-03-02T15:29:21;11.00;99.90
20315;DHT22;10315;50.958;13.080;2024-03-02T15:39:29;10.80;99.90
20315;DHT22;10315;50.958;13.080;2024-03-02T15:49:32;10.30;99.90
20315;DHT22;10315;50.958;13.080;2024-03-02T15:59:33;10.00;99.90
20315;DHT22;10315;50.958;13.080;2024-03-02T16:09:36;9.90;99.90
20315;DHT22;10315;50.958;13.080;2024-03-02T16:19:38;9.70;99.90
20315;DHT22;10315;50.958;13.080;2024-03-02T16:29:42;9.60;99.90
20315;DHT22;10315;50.958;13.080;2024-03-02T16:39:44;9.40;99.90
20315;DHT22;10315;50.958;13.080;2024-03-02T16:49:47;9.10;99.90
20315;DHT22;10315;50.958;13.080;2024-03-02T16:59:49;8.80;99.90
20315;DHT22;10315;50.958;13.080;2024-03-02T17:09:51;8.50;99.90
20315;DHT22;10315;50.958;13.080;2024-03-02T17:19:56;8.30;99.90
20315;DHT22;10315;50.958;13.080;2024-03-02T17:29:59;8.10;99.90
20315;DHT22;10315;50.958;13.080;2024-03-02T17:40:01;7.90;99.90
20315;DHT22;10315;50.958;13.080;2024-03-02T17:50:05;7.90;99.90
20315;DHT22;10315;50.958;13.080;2024-03-02T18:00:07;7.90;99.90
20315;DHT22;10315;50.958;13.080;2024-03-02T18:10:15;7.80;99.90
20315;DHT22;10315;50.958;13.080;2024-03-02T18:20:17;7.80;99.90
20315;DHT22;10315;50.958;13.080;2024-03-02T18:30:20;7.80;99.90
20315;DHT22;10315;50.958;13.080;2024-03-02T18:40:21;7.60;99.90
20315;DHT22;10315;50.958;13.080;2024-03-02T18:50:24;7.50;99.90
20315;DHT22;10315;50.958;13.080;2024-03-02T19:00:26;7.30;99.90
20315;DHT22;10315;50.958;13.080;2024-03-02T19:10:29;7.30;99.90
20315;DHT22;10315;50.958;13.080;2024-03-02T19:20:30;7.40;99.90
20315;DHT22;10315;50.958;13.080;2024-03-02T19:30:33;7.30;99.90
20315;DHT22;10315;50.958;13.080;2024-03-02T19:40:36;7.20;99.90
20315;DHT22;10315;50.958;13.080;2024-03-02T19:50:39;7.20;99.90
20315;DHT22;10315;50.958;13.080;2024-03-02T20:00:42;7.00;99.90
20315;DHT22;10315;50.958;13.080;2024-03-02T20:10:45;7.00;99.90
20315;DHT22;10315;50.958;13.080;2024-03-02T20:20:46;6.80;99.90
20315;DHT22;10315;50.958;13.080;2024-03-02T20:30:49;6.90;99.90
20315;DHT22;10315;50.958;13.080;2024-03-02T20:40:51;6.90;99.90
20315;DHT22;10315;50.958;13.080;2024-03-02T20:50:54;7.00;99.90
20315;DHT22;10315;50.958;13.080;2024-03-02T21:00:56;7.00;99.90
20315;DHT22;10315;50.958;13.080;2024-03-02T21:10:59;6.90;99.90
20315;DHT22;10315;50.958;13.080;2024-03-02T21:21:05;6.80;99.90
20315;DHT22;10315;50.958;13.080;2024-03-02T21:31:14;6.10;99.90
20315;DHT22;10315;50.958;13.080;2024-03-02T21:41:15;5.70;99.90
20315;DHT22;10315;50.958;13.080;2024-03-02T21:51:18;5.50;99.90
20315;DHT22;10315;50.958;13.080;2024-03-02T22:01:20;5.70;99.90
20315;DHT22;10315;50.958;13.080;2024-03-02T22:11:23;6.10;99.90
20315;DHT22;10315;50.958;13.080;2024-03-02T22:21:25;6.50;99.90
20315;DHT22;10315;50.958;13.080;2024-03-02T22:31:27;6.60;99.90
20315;DHT22;10315;50.958;13.080;2024-03-02T22:41:29;6.50;99.90
20315;DHT22;10315;50.958;13.080;2024-03-02T22:51:32;5.70;99.90
20315;DHT22;10315;50.958;13.080;2024-03-02T23:01:34;5.10;99.90
20315;DHT22;10315;50.958;13.080;2024-03-02T23:11:37;4.80;99.90
20315;DHT22;10315;50.958;13.080;2024-03-02T23:21:38;5.10;99.90
20315;DHT22;10315;50.958;13.080;2024-03-02T23:31:41;5.30;99.90
20315;DHT22;10315;50.958;13.080;2024-03-02T23:41:43;5.40;99.90
20315;DHT22;10315;50.958;13.080;2024-03-02T23:51:46;4.90;99.90
